Time;durP1;ratioP1;P1;durP2;ratioP2;P2;SDS_P1;SDS_P2;PMS_P1;PMS_P2;Temp;Humidity;BMP_temperature;BMP_pressure;BME280_temperature;BME280_humidity;BME280_pressure;Samples;Min_cycle;Max_cycle;Signal;HPM_P1;HPM_P2
2023/09/10 07:01:30;;;;;;;0.63;0.63;;;32.30;99.90;38.10;101592.00;;;;6212747;22;1493522;-78
2023/09/10 07:04:01;;;;;;;0.55;0.55;;;32.70;99.90;38.10;101618.00;;;;6255855;22;20172;-79
2023/09/10 07:06:27;;;;;;;0.10;0.10;;;32.80;99.90;37.70;101628.00;;;;6255704;22;20180;-77
2023/09/10 07:08:55;;;;;;;0.10;0.10;;;32.70;99.90;38.40;101608.00;;;;6281420;22;20144;-78
2023/09/10 07:11:24;;;;;;;0.40;0.40;;;33.10;99.90;37.20;101637.00;;;;6281185;22;20163;-77
2023/09/10 07:13:52;;;;;;;0.10;0.10;;;32.50;99.90;36.00;101651.00;;;;6282463;22;20140;-79
2023/09/10 07:16:23;;;;;;;1.70;1.60;;;31.90;99.90;34.20;101661.00;;;;6280753;22;20137;-76
2023/09/10 07:18:49;;;;;;;14.20;13.55;;;30.70;99.90;34.20;101641.00;;;;6308720;22;20148;-76
2023/09/10 07:21:15;;;;;;;0.40;0.40;;;30.20;99.90;36.50;101666.00;;;;6255070;22;20160;-76
2023/09/10 07:23:45;;;;;;;0.10;0.10;;;31.00;99.90;35.80;101657.00;;;;6281683;22;20168;-81
2023/09/10 07:26:17;;;;;;;0.10;0.10;;;31.40;99.90;37.70;101621.00;;;;6308312;22;20140;-77
2023/09/10 07:28:43;;;;;;;0.15;0.15;;;32.20;99.90;37.50;101622.00;;;;6280757;22;20152;-77
2023/09/10 07:31:12;;;;;;;0.10;0.10;;;32.80;99.90;38.20;101612.00;;;;6280058;22;20168;-77
2023/09/10 07:33:56;;;;;;;0.22;0.22;;;33.00;99.90;37.40;101624.00;;;;6280571;22;20152;-77
2023/09/10 07:36:40;;;;;;;0.10;0.10;;;32.50;99.90;38.20;101613.00;;;;6281359;22;20136;-78
2023/09/10 07:39:31;;;;;;;0.10;0.10;;;33.00;99.90;36.20;101652.00;;;;6255917;22;20215;-77
2023/09/10 07:41:58;;;;;;;0.73;0.73;;;32.30;99.90;36.30;101649.00;;;;6255325;22;20172;-78
2023/09/10 07:44:32;;;;;;;0.20;0.20;;;32.20;99.90;36.20;101657.00;;;;6281158;22;20144;-78
2023/09/10 07:47:03;;;;;;;0.10;0.10;;;31.80;99.90;37.20;101630.00;;;;6280589;22;20144;-77
2023/09/10 07:49:59;;;;;;;0.40;0.40;;;32.10;99.90;37.50;101595.00;;;;6307266;22;20223;-77
2023/09/10 07:52:25;;;;;;;0.15;0.15;;;32.50;99.90;38.60;101599.00;;;;6248610;22;20168;-78
2023/09/10 07:55:14;;;;;;;0.17;0.17;;;33.00;99.90;38.90;101607.00;;;;6280724;22;20167;-78
2023/09/10 07:57:41;;;;;;;0.08;0.08;;;33.70;99.90;37.30;101596.00;;;;6258197;22;20223;-77
2023/09/10 08:00:10;;;;;;;0.10;0.10;;;32.90;99.90;38.20;101600.00;;;;6271359;22;20612;-78
2023/09/10 08:02:57;;;;;;;0.10;0.10;;;33.10;99.90;38.10;101605.00;;;;6224047;22;20181;-77
2023/09/10 08:05:45;;;;;;;0.50;0.50;;;33.10;99.90;38.10;101619.00;;;;6249631;22;20134;-77
2023/09/10 08:08:21;;;;;;;1.38;0.88;;;33.00;99.90;37.50;101598.00;;;;6224956;22;20176;-77
2023/09/10 08:11:18;;;;;;;0.10;0.10;;;32.90;99.90;34.90;101699.00;;;;6249825;22;20621;-77
2023/09/10 08:14:00;;;;;;;0.52;0.52;;;31.90;99.90;35.70;101682.00;;;;6229350;22;20168;-77
2023/09/10 08:16:54;;;;;;;0.10;0.10;;;31.60;99.90;36.00;101680.00;;;;6274716;22;20167;-77
2023/09/10 08:19:34;;;;;;;0.10;0.10;;;32.10;99.90;36.90;101658.00;;;;6202650;22;20907;-77
2023/09/10 08:22:24;;;;;;;0.15;0.15;;;32.10;99.90;36.30;101676.00;;;;6224900;22;20192;-76
2023/09/10 08:24:59;;;;;;;0.40;0.40;;;32.10;99.90;37.70;101650.00;;;;6224752;22;20632;-77
2023/09/10 08:27:36;;;;;;;0.10;0.10;;;32.60;99.90;34.60;101705.00;;;;6224591;22;20174;-77
2023/09/10 08:30:14;;;;;;;0.20;0.20;;;31.90;99.90;35.80;101645.00;;;;6250071;22;20157;-76
2023/09/10 08:32:47;;;;;;;0.10;0.10;;;31.20;99.90;37.60;101667.00;;;;6250144;22;20144;-82
2023/09/10 08:35:23;;;;;;;0.10;0.10;;;32.40;99.90;35.60;101697.00;;;;6225499;22;20153;-82
2023/09/10 08:37:54;;;;;;;0.10;0.10;;;31.60;99.90;38.10;101624.00;;;;6249437;22;20172;-77
2023/09/10 08:40:21;;;;;;;0.10;0.10;;;32.60;99.90;36.50;101661.00;;;;6249649;22;20544;-73
2023/09/10 08:43:11;;;;;;;0.10;0.10;;;32.70;99.90;36.40;101684.00;;;;6249643;22;20521;-77
2023/09/10 08:45:40;;;;;;;0.20;0.20;;;32.20;99.90;37.50;101642.00;;;;6249062;22;20141;-77
2023/09/10 08:48:06;;;;;;;0.32;0.32;;;32.90;99.90;38.40;101628.00;;;;6248873;22;20140;-80
2023/09/10 08:50:40;;;;;;;1.45;1.42;;;33.20;99.90;39.40;101614.00;;;;6249906;22;20149;-72
2023/09/10 08:53:07;;;;;;;0.20;0.20;;;34.00;99.90;38.70;101616.00;;;;6249919;22;20152;-87
2023/09/10 08:55:40;;;;;;;0.10;0.10;;;34.10;99.90;35.80;101670.00;;;;6249867;22;20152;-81
2023/09/10 08:58:12;;;;;;;0.30;0.30;;;32.80;99.90;35.30;101685.00;;;;6224792;22;20153;-78
2023/09/10 09:00:42;;;;;;;0.70;0.38;;;32.10;99.90;35.30;101693.00;;;;6264822;22;20182;-79
2023/09/10 09:03:14;;;;;;;0.10;0.10;;;31.80;99.90;36.50;101639.00;;;;6254847;22;20409;-78
2023/09/10 09:05:51;;;;;;;0.82;0.82;;;31.90;99.90;35.50;101680.00;;;;6254700;22;20540;-80
2023/09/10 09:08:48;;;;;;;0.45;0.45;;;32.20;99.90;37.10;101665.00;;;;6255269;22;20174;-77
2023/09/10 09:11:35;;;;;;;0.20;0.20;;;32.00;99.90;39.20;101609.00;;;;6255028;22;20183;-77
2023/09/10 09:14:31;;;;;;;3.08;0.63;;;33.40;99.90;38.00;101629.00;;;;6295835;22;20156;-76
2023/09/10 09:17:21;;;;;;;0.13;0.13;;;33.90;99.90;39.20;101597.00;;;;6279889;22;20141;-76
2023/09/10 09:20:11;;;;;;;0.10;0.10;;;34.40;99.90;40.30;101601.00;;;;6254400;22;20157;-78
2023/09/10 09:23:11;;;;;;;0.10;0.10;;;35.10;99.90;37.70;101653.00;;;;6257453;22;20164;-76
2023/09/10 09:25:55;;;;;;;0.03;0.03;;;34.10;99.90;39.80;101600.00;;;;6254450;22;20164;-77
2023/09/10 09:28:42;;;;;;;0.10;0.10;;;34.50;99.90;40.10;101604.00;;;;6280258;22;20159;-79
2023/09/10 09:31:48;;;;;;;0.98;0.57;;;35.30;99.90;39.40;101622.00;;;;6279342;22;20534;-80
2023/09/10 09:34:40;;;;;;;0.47;0.47;;;34.80;99.90;37.80;101653.00;;;;6280239;22;20564;-79
2023/09/10 09:37:32;;;;;;;0.57;0.57;;;34.30;99.90;36.60;101667.00;;;;6253775;22;20167;-79
2023/09/10 09:40:09;;;;;;;0.22;0.22;;;33.00;99.90;36.20;101674.00;;;;6280061;22;20194;-79
2023/09/10 09:43:15;;;;;;;0.10;0.10;;;32.50;99.90;38.70;101637.00;;;;6279925;22;20765;-73
2023/09/10 09:46:03;;;;;;;1.85;1.75;;;33.60;99.90;34.30;101699.00;;;;6279391;22;20178;-74
2023/09/10 09:48:52;;;;;;;0.30;0.30;;;32.20;99.90;33.70;101724.00;;;;6231164;22;20160;-73
2023/09/10 09:51:43;;;;;;;0.10;0.10;;;30.80;99.90;34.70;101704.00;;;;6280348;22;20153;-74
2023/09/10 09:54:50;;;;;;;0.10;0.10;;;31.00;99.90;36.30;101682.00;;;;6245030;22;20164;-74
2023/09/10 09:57:46;;;;;;;0.30;0.30;;;31.40;99.90;37.60;101667.00;;;;6254558;22;20160;-74
2023/09/10 10:00:19;;;;;;;0.10;0.10;;;32.70;99.90;38.50;101658.00;;;;6268597;22;20210;-74
2023/09/10 10:03:06;;;;;;;0.10;0.10;;;33.50;99.90;37.40;101660.00;;;;6248751;22;20169;-74
2023/09/10 10:05:58;;;;;;;0.10;0.10;;;33.80;99.90;39.20;101643.00;;;;6226162;22;20235;-74
2023/09/10 10:09:03;;;;;;;0.20;0.20;;;34.00;99.90;39.30;101619.00;;;;6223574;22;20167;-74
2023/09/10 10:11:59;;;;;;;0.30;0.30;;;34.30;99.90;38.70;101634.00;;;;6223378;22;20168;-74
2023/09/10 10:15:05;;;;;;;0.28;0.28;;;34.30;99.90;39.70;101577.00;;;;6248548;22;20137;-73
2023/09/10 10:17:56;;;;;;;0.47;0.47;;;34.80;99.90;37.30;101648.00;;;;6226467;22;20251;-74
2023/09/10 10:34:22;;;;;;;0.30;0.30;;;32.00;99.90;36.50;101663.00;;;;5065439;28;20961;-75
2023/09/10 10:37:39;;;;;;;3.75;0.93;;;32.00;99.90;37.00;101636.00;;;;5020556;28;20202;-75
2023/09/10 10:40:33;;;;;;;0.73;0.68;;;32.80;99.90;34.80;101666.00;;;;5056268;28;20206;-75
2023/09/10 10:44:03;;;;;;;0.15;0.15;;;32.40;99.90;36.70;101643.00;;;;5036047;28;20547;-75
2023/09/10 10:46:59;;;;;;;8.07;1.75;;;32.20;99.90;39.20;101586.00;;;;5059917;28;20212;-75
2023/09/10 10:49:37;;;;;;;0.30;0.30;;;33.90;99.90;39.40;101588.00;;;;5075111;28;20190;-74
2023/09/10 10:52:19;;;;;;;0.10;0.10;;;34.50;99.90;38.70;101577.00;;;;5044340;28;20220;-73
2023/09/10 10:55:04;;;;;;;0.10;0.10;;;34.60;99.90;38.20;101590.00;;;;5060922;28;20179;-71
2023/09/10 10:57:54;;;;;;;0.30;0.30;;;33.80;99.90;38.10;101595.00;;;;5047677;28;20717;-73
2023/09/10 11:00:41;;;;;;;0.10;0.10;;;34.30;99.90;39.10;101578.00;;;;5047528;28;20203;-71
2023/09/10 11:03:47;;;;;;;0.10;0.10;;;34.40;99.90;38.60;101562.00;;;;5028676;28;20281;-77
2023/09/10 11:07:22;;;;;;;0.10;0.10;;;34.60;99.90;38.60;101572.00;;;;5045398;28;20190;-79
2023/09/10 11:10:27;;;;;;;0.10;0.10;;;34.70;99.90;39.60;101566.00;;;;5054777;28;20199;-79
2023/09/10 11:13:09;;;;;;;0.10;0.10;;;34.80;99.90;40.00;101546.00;;;;5058707;28;20576;-80
2023/09/10 11:16:07;;;;;;;0.20;0.20;;;35.30;99.90;39.60;101553.00;;;;5060873;28;20174;-81
2023/09/10 11:18:51;;;;;;;0.10;0.10;;;35.40;99.90;37.80;101559.00;;;;5047196;28;20187;-81
2023/09/10 11:21:53;;;;;;;0.17;0.17;;;34.10;99.90;39.50;101550.00;;;;5045131;28;20186;-77
2023/09/10 11:24:25;;;;;;;0.17;0.17;;;34.30;99.90;38.30;101587.00;;;;5040134;28;20214;-79
2023/09/10 11:27:21;;;;;;;0.10;0.10;;;34.50;99.90;39.90;101546.00;;;;5043280;28;20202;-80
2023/09/10 11:30:11;;;;;;;0.10;0.10;;;34.90;99.90;41.20;101513.00;;;;5044798;28;20175;-81
2023/09/10 11:33:30;;;;;;;0.20;0.20;;;35.70;99.90;39.60;101584.00;;;;5038091;28;20226;-81
2023/09/10 11:36:22;;;;;;;1.95;0.57;;;35.00;99.90;39.90;101581.00;;;;5061712;28;20183;-81
2023/09/10 11:38:54;;;;;;;0.10;0.10;;;35.50;99.90;39.90;101581.00;;;;5029351;28;20174;-81
2023/09/10 11:41:25;;;;;;;0.15;0.15;;;35.30;99.90;39.00;101593.00;;;;5049256;28;20190;-72
2023/09/10 11:44:01;;;;;;;0.88;0.77;;;34.80;99.90;38.70;101600.00;;;;5040444;28;20191;-75
2023/09/10 11:46:57;;;;;;;0.60;0.60;;;34.60;99.90;39.40;101581.00;;;;5014623;28;20185;-76
2023/09/10 11:49:43;;;;;;;0.10;0.10;;;34.90;99.90;39.90;101570.00;;;;5033245;28;20237;-76
2023/09/10 11:52:28;;;;;;;0.17;0.17;;;35.00;99.90;39.50;101552.00;;;;5014348;28;20211;-76
2023/09/10 11:55:20;;;;;;;0.35;0.17;;;34.90;99.90;39.90;101572.00;;;;5031695;28;20210;-75
2023/09/10 11:57:53;;;;;;;0.55;0.55;;;34.90;99.90;39.10;101594.00;;;;5027761;28;20176;-75
2023/09/10 12:00:48;;;;;;;0.10;0.10;;;34.70;99.90;39.40;101582.00;;;;5034505;28;20202;-74
2023/09/10 12:03:31;;;;;;;0.10;0.10;;;34.60;99.90;37.40;101597.00;;;;5009093;28;20239;-71
2023/09/10 12:06:03;;;;;;;0.10;0.10;;;34.20;99.90;38.50;101599.00;;;;5042415;28;20191;-71
2023/09/10 12:08:37;;;;;;;0.15;0.15;;;33.90;99.90;38.50;101595.00;;;;5020943;28;20236;-72
2023/09/10 12:11:24;;;;;;;0.13;0.13;;;34.00;99.90;38.80;101586.00;;;;5031927;28;20270;-71
2023/09/10 12:13:52;;;;;;;0.57;0.57;;;34.10;99.90;38.40;101575.00;;;;5032443;28;20182;-71
2023/09/10 12:16:26;;;;;;;1.95;0.63;;;34.10;99.90;38.70;101549.00;;;;5033487;28;20240;-71
2023/09/10 12:19:10;;;;;;;0.17;0.17;;;34.10;99.90;38.80;101565.00;;;;5027489;28;20190;-72
2023/09/10 12:21:44;;;;;;;0.98;0.98;;;34.20;99.90;38.10;101585.00;;;;5028526;28;20313;-71
2023/09/10 12:24:11;;;;;;;0.10;0.10;;;34.00;99.90;38.00;101583.00;;;;5031786;28;20195;-71
2023/09/10 12:26:39;;;;;;;0.10;0.10;;;33.80;99.90;39.10;101544.00;;;;5033091;28;20187;-72
2023/09/10 12:29:05;;;;;;;0.20;0.20;;;34.00;99.90;37.80;101557.00;;;;5027916;28;20689;-72
2023/09/10 12:31:33;;;;;;;0.10;0.10;;;33.90;99.90;38.90;101573.00;;;;5036017;28;20308;-71
2023/09/10 12:34:07;;;;;;;0.85;0.85;;;33.90;99.90;38.40;101563.00;;;;5014928;28;20191;-72
2023/09/10 12:36:33;;;;;;;0.47;0.30;;;33.90;99.90;38.30;101567.00;;;;5026957;28;20182;-71
2023/09/10 12:39:05;;;;;;;0.57;0.57;;;33.90;99.90;37.30;101581.00;;;;5034713;28;20182;-71
2023/09/10 12:41:34;;;;;;;1.05;1.05;;;33.70;99.90;37.70;101577.00;;;;5033010;28;20191;-74
2023/09/10 12:44:02;;;;;;;0.20;0.20;;;33.30;99.90;37.00;101583.00;;;;5033777;28;20660;-74
2023/09/10 12:46:32;;;;;;;0.10;0.10;;;33.30;99.90;37.80;101569.00;;;;5020732;28;20657;-73
2023/09/10 12:48:58;;;;;;;0.20;0.20;;;33.30;99.90;37.20;101578.00;;;;5025137;28;20191;-73
2023/09/10 12:51:26;;;;;;;0.98;0.68;;;33.40;99.90;37.60;101573.00;;;;5031248;28;20218;-74
2023/09/10 12:53:52;;;;;;;43.85;20.17;;;33.40;99.90;37.60;101568.00;;;;5031641;28;20182;-73
2023/09/10 12:56:22;;;;;;;0.55;0.55;;;33.30;99.90;37.80;101572.00;;;;5032488;28;20264;-73
2023/09/10 12:58:48;;;;;;;0.20;0.20;;;33.40;99.90;38.00;101556.00;;;;5026691;28;20270;-74
2023/09/10 13:01:25;;;;;;;0.32;0.32;;;33.50;99.90;38.20;101545.00;;;;5032287;28;20269;-73
2023/09/10 13:03:54;;;;;;;0.43;0.43;;;33.60;99.90;38.70;101516.00;;;;5032015;28;20712;-73
2023/09/10 13:06:20;;;;;;;0.20;0.20;;;33.80;99.90;37.60;101550.00;;;;5029477;28;20214;-73
2023/09/10 13:08:49;;;;;;;0.32;0.32;;;33.50;99.90;38.20;101534.00;;;;5030579;28;20275;-73
2023/09/10 13:11:15;;;;;;;0.10;0.10;;;33.50;99.90;38.40;101534.00;;;;5033978;28;20183;-74
2023/09/10 13:14:08;;;;;;;1.30;1.20;;;33.60;99.90;37.80;101540.00;;;;5026187;28;20650;-73
2023/09/10 13:16:34;;;;;;;0.30;0.30;;;33.60;99.90;38.70;101536.00;;;;5032947;28;20595;-73
2023/09/10 13:19:03;;;;;;;0.30;0.30;;;33.80;99.90;37.30;101548.00;;;;5030257;28;20182;-72
2023/09/10 13:21:29;;;;;;;0.32;0.32;;;33.70;99.90;37.70;101546.00;;;;5029341;28;20201;-73
2023/09/10 13:24:33;;;;;;;1.10;1.08;;;33.40;99.90;37.90;101529.00;;;;5031099;28;20199;-74
2023/09/10 13:26:59;;;;;;;1.15;1.05;;;33.40;99.90;38.40;101523.00;;;;5026297;28;20210;-74
2023/09/10 13:29:25;;;;;;;0.43;0.43;;;33.60;99.90;38.40;101528.00;;;;5028052;28;20658;-74
2023/09/10 13:31:52;;;;;;;0.38;0.32;;;33.90;99.90;38.20;101498.00;;;;5040845;28;20241;-75
2023/09/10 13:34:20;;;;;;;0.40;0.40;;;33.70;99.90;38.40;101535.00;;;;5033048;28;20258;-75
2023/09/10 13:36:53;;;;;;;0.75;0.75;;;33.70;99.90;38.20;101524.00;;;;5027427;28;20182;-75
2023/09/10 13:39:46;;;;;;;0.10;0.10;;;33.60;99.90;38.10;101521.00;;;;5033138;28;20265;-75
2023/09/10 13:42:25;;;;;;;0.38;0.38;;;33.70;99.90;38.70;101512.00;;;;4991479;28;20196;-75
2023/09/10 13:45:07;;;;;;;0.10;0.10;;;33.80;99.90;37.30;101502.00;;;;5026341;28;20197;-75
2023/09/10 13:47:43;;;;;;;0.10;0.10;;;33.60;99.90;38.40;101515.00;;;;5032681;28;20210;-75
2023/09/10 13:50:12;;;;;;;0.10;0.10;;;33.60;99.90;38.10;101514.00;;;;5015306;28;20553;-75
2023/09/10 13:52:56;;;;;;;0.20;0.20;;;33.80;99.90;38.40;101523.00;;;;5033135;28;20202;-75
2023/09/10 13:55:45;;;;;;;0.20;0.20;;;33.60;99.90;38.60;101508.00;;;;5035954;28;20648;-75
2023/09/10 13:58:37;;;;;;;0.38;0.38;;;33.80;99.90;37.60;101505.00;;;;5021161;28;20190;-75
2023/09/10 14:01:14;;;;;;;0.10;0.10;;;33.70;99.90;37.70;101533.00;;;;5012688;28;20638;-75
2023/09/10 14:03:55;;;;;;;0.10;0.10;;;33.50;99.90;37.90;101488.00;;;;5026361;28;20214;-76
2023/09/10 14:06:41;;;;;;;0.30;0.30;;;33.60;99.90;37.00;101518.00;;;;5059947;28;20198;-76
2023/09/10 14:09:26;;;;;;;0.20;0.20;;;33.20;99.90;37.70;101522.00;;;;5030212;28;20199;-75
2023/09/10 14:12:07;;;;;;;4.75;4.07;;;33.20;99.90;38.40;101489.00;;;;5027758;28;20545;-75
2023/09/10 14:15:02;;;;;;;0.10;0.10;;;33.50;99.90;39.00;101498.00;;;;5063523;28;20187;-73
2023/09/10 14:17:52;;;;;;;0.10;0.10;;;33.90;99.90;39.30;101486.00;;;;5023942;28;20198;-73
2023/09/10 14:20:32;;;;;;;0.50;0.50;;;34.30;99.90;38.10;101506.00;;;;5060797;28;20186;-73
2023/09/10 14:23:18;;;;;;;0.10;0.10;;;34.10;99.90;38.20;101497.00;;;;5031053;28;20185;-73
2023/09/10 14:25:58;;;;;;;5.03;2.38;;;34.00;99.90;36.90;101515.00;;;;5029603;28;20248;-73
2023/09/10 14:28:31;;;;;;;9.32;2.53;;;33.30;99.90;37.50;101509.00;;;;5032176;28;20202;-73
2023/09/10 14:31:20;;;;;;;1.17;0.65;;;33.10;99.90;36.90;101492.00;;;;5025141;28;20601;-73
2023/09/10 14:33:51;;;;;;;0.63;0.63;;;33.20;99.90;37.00;101511.00;;;;5021332;28;20550;-73
2023/09/10 14:36:24;;;;;;;0.20;0.20;;;33.00;99.90;37.90;101504.00;;;;5030597;28;20195;-73
2023/09/10 14:39:13;;;;;;;0.28;0.25;;;33.10;99.90;37.40;101503.00;;;;5040760;28;20282;-73
2023/09/10 14:42:04;;;;;;;0.30;0.30;;;33.20;99.90;37.80;101499.00;;;;5023429;28;20557;-73
2023/09/10 14:44:39;;;;;;;0.30;0.30;;;33.30;99.90;37.60;101496.00;;;;5024562;28;20175;-73
2023/09/10 14:47:26;;;;;;;0.57;0.57;;;33.10;99.90;37.40;101495.00;;;;5017634;28;20212;-73
2023/09/10 14:50:17;;;;;;;0.50;0.50;;;33.20;99.90;37.80;101478.00;;;;5039426;28;20174;-73
2023/09/10 14:53:09;;;;;;;0.50;0.50;;;33.20;99.90;37.80;101485.00;;;;5033710;28;20222;-73
2023/09/10 14:55:58;;;;;;;0.10;0.10;;;33.40;99.90;37.70;101482.00;;;;5023374;28;20178;-72
2023/09/10 14:58:51;;;;;;;0.17;0.17;;;33.40;99.90;37.90;101483.00;;;;5024167;28;20182;-75
2023/09/10 15:01:43;;;;;;;3.45;3.15;;;33.50;99.90;38.10;101472.00;;;;5038929;28;20259;-74
2023/09/10 15:05:03;;;;;;;0.30;0.30;;;33.60;99.90;37.40;101483.00;;;;5038069;28;20198;-74
2023/09/10 15:07:59;;;;;;;33.97;3.05;;;33.30;99.90;37.00;101477.00;;;;5039299;28;20182;-74
2023/09/10 15:10:54;;;;;;;0.20;0.20;;;33.00;99.90;37.50;101476.00;;;;5037225;28;20669;-75
2023/09/10 15:13:44;;;;;;;0.20;0.20;;;32.90;99.90;37.60;101436.00;;;;5037226;28;20729;-75
2023/09/10 15:16:33;;;;;;;0.60;0.60;;;33.10;99.90;37.90;101472.00;;;;5024524;28;20194;-74
2023/09/10 15:19:17;;;;;;;0.10;0.10;;;33.10;99.90;37.70;101431.00;;;;5038389;28;20236;-75
2023/09/10 15:21:45;;;;;;;0.68;0.68;;;33.20;99.90;38.20;101460.00;;;;5057319;28;22757;-75
2023/09/10 15:24:36;;;;;;;0.55;0.55;;;33.30;99.90;38.10;101466.00;;;;5042778;28;20611;-75
2023/09/10 15:27:23;;;;;;;1.95;1.20;;;33.20;99.90;37.80;101460.00;;;;5042326;28;20645;-74
2023/09/10 15:29:57;;;;;;;0.10;0.10;;;33.10;99.90;37.30;101464.00;;;;5058803;28;20182;-72
2023/09/10 15:32:42;;;;;;;0.10;0.10;;;33.20;99.90;38.10;101450.00;;;;5041595;28;20267;-74
2023/09/10 15:35:15;;;;;;;0.10;0.10;;;33.20;99.90;38.40;101434.00;;;;5041905;28;20309;-73
2023/09/10 15:37:49;;;;;;;0.10;0.10;;;33.30;99.90;38.80;101434.00;;;;5048433;28;20189;-73
2023/09/10 15:40:23;;;;;;;0.10;0.10;;;33.50;99.90;38.60;101444.00;;;;5041444;28;20198;-74
2023/09/10 15:42:58;;;;;;;0.38;0.22;;;33.70;99.90;37.70;101441.00;;;;5040558;28;20189;-74
2023/09/10 15:45:24;;;;;;;0.13;0.13;;;33.40;99.90;37.40;101462.00;;;;5043400;28;20193;-73
2023/09/10 15:47:57;;;;;;;0.10;0.10;;;33.10;99.90;37.40;101420.00;;;;5043693;28;20183;-74
2023/09/10 15:50:29;;;;;;;0.10;0.10;;;32.90;99.90;37.20;101448.00;;;;5040304;28;20189;-73
2023/09/10 15:52:57;;;;;;;0.20;0.20;;;32.90;99.90;37.90;101436.00;;;;5030013;28;20623;-87
2023/09/10 15:55:23;;;;;;;0.35;0.22;;;33.20;99.90;37.50;101404.00;;;;5041516;28;20195;-70
2023/09/10 15:57:52;;;;;;;0.55;0.55;;;33.00;99.90;37.20;101410.00;;;;5043678;28;20187;-71
2023/09/10 16:00:23;;;;;;;0.20;0.20;;;32.80;99.90;37.30;101446.00;;;;5042652;28;20205;-71
2023/09/10 16:02:52;;;;;;;0.10;0.10;;;32.80;99.90;37.20;101442.00;;;;5058847;28;20198;-73
2023/09/10 16:05:18;;;;;;;0.20;0.20;;;32.80;99.90;37.10;101434.00;;;;5057340;28;20190;-69
2023/09/10 16:07:44;;;;;;;0.20;0.20;;;32.70;99.90;36.90;101443.00;;;;5041786;28;20635;-72
2023/09/10 16:10:31;;;;;;;0.10;0.10;;;32.60;99.90;37.10;101428.00;;;;5042444;28;20184;-72
2023/09/10 16:13:19;;;;;;;0.30;0.30;;;32.60;99.90;37.10;101424.00;;;;5040189;28;20230;-72
2023/09/10 16:15:59;;;;;;;0.30;0.30;;;32.70;99.90;37.40;101424.00;;;;5025893;28;20188;-74
2023/09/10 16:18:33;;;;;;;0.20;0.20;;;32.80;99.90;37.70;101417.00;;;;5041603;28;20185;-72
2023/09/10 16:21:09;;;;;;;0.55;0.55;;;33.00;99.90;36.70;101421.00;;;;5040129;28;20179;-71
2023/09/10 16:24:15;;;;;;;0.10;0.10;;;32.70;99.90;37.30;101413.00;;;;5058514;28;20633;-71
2023/09/10 16:27:04;;;;;;;0.30;0.30;;;32.70;99.90;37.80;101399.00;;;;5042117;28;20189;-71
2023/09/10 16:29:39;;;;;;;0.10;0.10;;;32.80;99.90;37.50;101400.00;;;;5039755;28;20243;-70
2023/09/10 16:32:15;;;;;;;0.40;0.40;;;32.80;99.90;37.60;101375.00;;;;5040958;28;20293;-71
2023/09/10 16:35:01;;;;;;;0.45;0.45;;;32.80;99.90;38.10;101403.00;;;;5041346;28;20225;-72
2023/09/10 16:37:45;;;;;;;0.52;0.52;;;32.90;99.90;37.10;101424.00;;;;5040269;28;20257;-73
2023/09/10 16:40:28;;;;;;;0.13;0.13;;;32.80;99.90;37.10;101420.00;;;;5042205;28;20652;-74
2023/09/10 16:43:16;;;;;;;0.40;0.40;;;32.60;99.90;37.50;101415.00;;;;5041505;28;20191;-74
2023/09/10 16:45:44;;;;;;;0.43;0.43;;;32.70;99.90;37.30;101384.00;;;;5040276;28;20195;-74
2023/09/10 16:48:45;;;;;;;0.73;0.50;;;32.60;99.90;37.30;101420.00;;;;5040191;28;20577;-74
2023/09/10 16:51:29;;;;;;;0.68;0.68;;;32.50;99.90;36.80;101426.00;;;;5041506;28;20244;-74
2023/09/10 16:54:15;;;;;;;0.20;0.20;;;32.30;99.90;36.20;101449.00;;;;5025200;28;20186;-74
2023/09/10 16:56:41;;;;;;;0.10;0.10;;;32.00;99.90;36.90;101431.00;;;;5023181;28;20190;-73
2023/09/10 16:59:09;;;;;;;0.73;0.73;;;32.10;99.90;36.90;101442.00;;;;5029193;28;20265;-74
2023/09/10 17:01:55;;;;;;;0.28;0.28;;;32.10;99.90;37.00;101433.00;;;;5032842;28;20197;-73
2023/09/10 17:04:39;;;;;;;0.15;0.15;;;32.20;99.90;37.20;101430.00;;;;5017874;28;20191;-74
2023/09/10 17:07:11;;;;;;;0.10;0.10;;;32.30;99.90;37.60;101425.00;;;;5013188;28;20182;-74
2023/09/10 17:09:46;;;;;;;0.10;0.10;;;32.40;99.90;37.60;101419.00;;;;5033776;28;20202;-74
2023/09/10 17:12:40;;;;;;;0.10;0.10;;;32.50;99.90;37.10;101424.00;;;;5029030;28;20210;-74
2023/09/10 17:15:26;;;;;;;0.10;0.10;;;32.30;99.90;37.60;101403.00;;;;5010128;28;20662;-74
2023/09/10 17:18:26;;;;;;;0.15;0.15;;;32.50;99.90;37.20;101404.00;;;;5029056;28;20266;-74
2023/09/10 17:21:17;;;;;;;0.10;0.10;;;32.40;99.90;37.40;101424.00;;;;5018040;28;20186;-74
2023/09/10 17:24:05;;;;;;;0.10;0.10;;;32.50;99.90;37.40;101420.00;;;;5029527;28;20187;-74
2023/09/10 17:26:49;;;;;;;0.13;0.13;;;32.40;99.90;37.40;101423.00;;;;5032804;28;20247;-74
2023/09/10 17:29:21;;;;;;;0.10;0.10;;;32.20;99.90;37.30;101427.00;;;;5030033;28;20608;-74
2023/09/10 17:32:10;;;;;;;0.20;0.20;;;32.30;99.90;37.00;101426.00;;;;5026626;28;20666;-74
2023/09/10 17:34:54;;;;;;;0.10;0.10;;;32.10;99.90;37.20;101424.00;;;;5014206;28;20634;-74
2023/09/10 17:37:33;;;;;;;0.20;0.20;;;32.10;99.90;37.00;101432.00;;;;5016908;28;20238;-74
2023/09/10 17:40:22;;;;;;;0.10;0.10;;;32.00;99.90;37.00;101427.00;;;;5021865;28;20210;-74
2023/09/10 17:42:58;;;;;;;0.10;0.10;;;32.00;99.90;37.20;101427.00;;;;5027458;28;20195;-74
2023/09/10 17:45:27;;;;;;;0.10;0.10;;;31.90;99.90;36.70;101432.00;;;;5046898;28;20193;-77
2023/09/10 17:48:03;;;;;;;0.17;0.17;;;31.70;99.90;36.70;101443.00;;;;5007815;28;20187;-76
2023/09/10 17:50:52;;;;;;;0.10;0.10;;;31.60;99.90;36.80;101440.00;;;;5034943;28;20226;-77
2023/09/10 17:53:27;;;;;;;0.10;0.10;;;31.60;99.90;36.40;101449.00;;;;5031174;28;20591;-74
2023/09/10 17:56:14;;;;;;;0.20;0.20;;;31.40;99.90;36.20;101439.00;;;;5014563;28;20207;-72
2023/09/10 17:58:51;;;;;;;0.20;0.20;;;31.20;99.90;36.20;101454.00;;;;5028090;28;20206;-76
2023/09/10 18:04:16;;;;;;;0.10;0.10;;;31.10;99.90;36.20;101442.00;;;;5024331;28;20183;-75
2023/09/10 18:07:02;;;;;;;0.13;0.13;;;31.00;99.90;36.30;101451.00;;;;5016346;28;20182;-76
2023/09/10 18:09:51;;;;;;;0.20;0.20;;;31.10;99.90;36.20;101446.00;;;;5034528;28;20185;-74
2023/09/10 18:12:45;;;;;;;0.20;0.20;;;31.10;99.90;35.80;101460.00;;;;5035414;28;20214;-73
2023/09/10 18:15:18;;;;;;;0.20;0.20;;;30.80;99.90;35.70;101440.00;;;;5036128;28;20190;-78
2023/09/10 18:17:48;;;;;;;0.20;0.20;;;30.70;99.90;35.60;101463.00;;;;5030649;28;20721;-75
2023/09/10 18:20:25;;;;;;;0.10;0.10;;;30.70;99.90;35.50;101456.00;;;;5028200;28;20191;-73
2023/09/10 18:23:00;;;;;;;2.10;1.95;;;30.60;99.90;35.30;101467.00;;;;5019499;28;20191;-82
2023/09/10 18:25:26;;;;;;;0.10;0.10;;;30.40;99.90;35.50;101476.00;;;;5034978;28;20255;-78
2023/09/10 18:28:15;;;;;;;0.10;0.10;;;30.50;99.90;35.30;101471.00;;;;5034855;28;20183;-77
2023/09/10 18:31:03;;;;;;;0.20;0.20;;;30.50;99.90;35.10;101481.00;;;;5038550;28;20186;-77
2023/09/10 18:33:37;;;;;;;1.27;1.08;;;30.30;99.90;34.70;101470.00;;;;5039389;28;20208;-78
2023/09/10 18:36:05;;;;;;;0.20;0.20;;;30.00;99.90;34.80;101489.00;;;;5037545;28;20194;-77
2023/09/10 18:38:55;;;;;;;0.15;0.15;;;29.80;99.90;34.80;101474.00;;;;5055539;28;20186;-79
2023/09/10 18:41:47;;;;;;;0.20;0.20;;;29.80;99.90;34.60;101482.00;;;;5019978;28;20187;-74
2023/09/10 18:44:22;;;;;;;0.20;0.20;;;29.80;99.90;34.50;101491.00;;;;5036045;28;20614;-74
2023/09/10 18:47:15;;;;;;;0.20;0.20;;;29.60;99.90;34.60;101489.00;;;;5051554;28;20206;-74
2023/09/10 18:49:54;;;;;;;6.78;1.75;;;29.60;99.90;34.80;101490.00;;;;5036400;28;20638;-74
2023/09/10 18:52:33;;;;;;;0.20;0.20;;;29.70;99.90;34.90;101456.00;;;;5055359;28;20209;-74
2023/09/10 18:55:07;;;;;;;0.20;0.20;;;29.80;99.90;34.90;101453.00;;;;5036846;28;20182;-74
2023/09/10 18:57:37;;;;;;;0.20;0.20;;;29.90;99.90;34.70;101494.00;;;;5043446;28;20212;-74
2023/09/10 19:00:13;;;;;;;0.20;0.20;;;29.80;99.90;34.60;101470.00;;;;5029816;28;20191;-73
2023/09/10 19:02:39;;;;;;;0.10;0.10;;;29.70;99.90;34.30;101504.00;;;;5043274;28;20290;-73
2023/09/10 19:05:26;;;;;;;0.20;0.20;;;29.50;99.90;34.70;101491.00;;;;5041896;28;20187;-73